Sun Valley, ID

2:34 AM MDT on October 24, 2014 (GMT -0600)
RAWS COPPER BASIN ID US | Change Station
CLOSE
Current Station
Personal Weather Station
Location: Mackay, ID
Elevation: 7853 ft
Nearby Weather Stations

Elev 7853 ft 43.81 °N, 113.85 °W | Updated 44 minutes ago

Overcast
Overcast
43 °F
Feels Like 35 °F
N
18
Wind Variable Wind from SW
Gusts 35.0 mph

Today
High -- | Low -- °F
--% Chance of Precip.
Yesterday
High -- | Low -- °F
Precip. -- in
8:02 AM 6:39 PM
New Moon, 0% visible
Pressure 29.98 in
Visibility -9999.0 miles
Clouds
Windchill 35 °F
Dew Point 33 °F
Humidity 67%
Rainfall 0.07 in
Snow Depth Not available.
UV Not available.
Pollen 3.30 out of 12
Air Quality Not available.
Flu Activity Sporadic
METAR KSNT 240751Z AUTO 00000KT 05/04 A3013 RMK AO1 SLP150 T00500039

More Conditions Fewer Conditions

Pressure 29.98 in
Visibility -9999.0 miles
Clouds
Windchill 35 °F
Dew Point 33 °F
Humidity 67%
Rainfall 0.07 in
Snow Depth Not available.
UV Not available.
Pollen 3.30 out of 12
Air Quality Not available.
Flu Activity Sporadic
METAR KSNT 240751Z AUTO 00000KT 05/04 A3013 RMK AO1 SLP150 T00500039

More Conditions Fewer Conditions

10-Day Weather Forecast

Almanac

Astronomy

Oct. 24, 2014 Rise Set
Actual Time 8:02 AM MDT 6:39 PM MDT
Civil Twilight 7:33 AM MDT 7:08 PM MDT
Nautical Twilight 6:59 AM MDT 7:41 PM MDT
Astronomical Twilight 6:26 AM MDT 8:15 PM MDT
Moon 8:47 AM MDT 7:20 PM MDT
Length of Visible Light 11h 35m
Length of Day
10h 36m
Tomorrow will be 2m 47s shorter.
New Moon, 0% of the Moon is Illuminated
Today
New Moon
Oct 30
First Quarter
Nov 6
Full
Nov 14
Last Quarter
Nov 22
New

Today's Extremes

State Highs State Lows

Community

WunderPhotos

Upload Photos

1,764,511 photos uploaded!

WunderBlogs® & News

Nearby

Snow Depth

Station Depth Elevation
Hyndman 1 in 7440 ft
Lost-Wood Divide 1 in 7900 ft
Swede Peak 1 in 7640 ft
Bear Canyon 0 in 7900 ft
Galena 1 in 7440 ft

Earthquake Activity

City Distance Mag. Time & Date
No recent earthquake activity has been reported nearby.
Minimum magnitude displayed is 2.5.

Coastal Water Temperatures

Place Temperature
No Stations Reporting

Nearby Weather Stations